Terminal Aerodrome Forecast
Issued by NWS

Current Version | Previous Version | Text Only | Print | Product List | Glossary Off
Versions: 1 2 3 4 5 6 7 8 9 10 11 12 13 14 15

000
FTUS42 KILM 191700
TAFCRE
TAF
KCRE 191720Z 1918/2018 36009KT P6SM SKC
     FM192300 VRB03KT P6SM SKC
     FM201500 15005KT P6SM FEW040=

USA.gov is the U.S. government's official web portal to all federal, state and local government web resources and services.